Charlottesville, VA (22901)

5:48 AM EDT on August 28, 2015 (GMT -0400)
Hydraulic Wash Laundromat | | Change Station
CLOSE
Current Station
Personal Weather Station
Location: Charlottesville, VA
Elevation: 548 ft
Nearby Weather Stations

Elev 548 ft 38.07 °N, 78.50 °W | Updated 3 minutes ago

Overcast
Overcast
63.5 °F
Feels Like 63.5 °F
N
0.0
Wind Variable Wind from SE
Gusts 13.0 mph

Today
High -- | Low -- °F
--% Chance of Precip.
Yesterday
High -- | Low -- °F
Precip. -- in
6:40 AM 7:49 PM
Waxing Gibbous, 97% visible
Pressure 30.15 in
Visibility 10.0 miles
Clouds Few 4600 ft
Overcast 5500 ft
Dew Point 60 °F
Humidity 88%
Rainfall 0.00 in
Snow Depth Not available.
UV 0.0 out of 12
Pollen 8.40 out of 12
Air Quality Not available.
Flu Activity Not available.
METAR KCHO 280853Z AUTO 00000KT 10SM FEW046 OVC055 17/16 A3016 RMK AO2 SLP208 T01720156 55003
Pressure 30.15 in
Visibility 10.0 miles
Clouds Few 4600 ft
Overcast 5500 ft
Dew Point 60 °F
Humidity 88%
Rainfall 0.00 in
Snow Depth Not available.
UV 0.0 out of 12
Pollen 8.40 out of 12
Air Quality Not available.
Flu Activity Not available.
METAR KCHO 280853Z AUTO 00000KT 10SM FEW046 OVC055 17/16 A3016 RMK AO2 SLP208 T01720156 55003

10-Day Weather Forecast

×

Almanac

Astronomy

Aug. 28, 2015 Rise Set
Actual Time
Civil Twilight
Nautical Twilight
Astronomical Twilight
Moon
Length of Visible Light
Length of Day
Tomorrow will be .
, % of the Moon is Illuminated

Today's Extremes

State Highs State Lows

Community

WunderPhotos

Upload Photos

1,850,352 photos uploaded!

WunderBlogs® & News

Nearby

Air Quality

  Air Quality AQ Index Pollutant
Not available.

Snow Depth

Station Depth Elevation

Earthquake Activity

City Distance Mag. Time & Date
Minimum magnitude displayed is 2.5.

Coastal Water Temperatures

Place Temperature

Stations

Nearby Weather Stations

Station Location Temp. Windchill Dew Point Humidity Wind Precip. Elev Updated Type